Time;durP1;ratioP1;P1;durP2;ratioP2;P2;SDS_P1;SDS_P2;PMS_P1;PMS_P2;Temp;Humidity;BMP_temperature;BMP_pressure;BME280_temperature;BME280_humidity;BME280_pressure;Samples;Min_cycle;Max_cycle;Signal;HPM_P1;HPM_P2
2022/04/05 00:02:57;;;;;;;22.67;6.13;;;;;;;;;;6148656;28;20235;-68
2022/04/05 00:06:17;;;;;;;9.67;3.47;;;;;;;;;;6142660;28;20231;-69
2022/04/05 00:09:41;;;;;;;14.90;5.40;;;;;;;;;;6145292;28;20226;-67
2022/04/05 00:13:04;;;;;;;12.90;4.40;;;;;;;;;;6132021;28;20230;-68
2022/04/05 00:16:26;;;;;;;12.10;3.63;;;;;;;;;;6143252;28;20555;-69
2022/04/05 00:19:47;;;;;;;12.47;3.90;;;;;;;;;;6143339;28;20227;-68
2022/04/05 00:23:07;;;;;;;10.47;3.93;;;;;;;;;;6151894;28;20508;-68
2022/04/05 00:26:30;;;;;;;13.23;4.33;;;;;;;;;;6144195;28;20825;-68
2022/04/05 00:29:51;;;;;;;13.43;5.00;;;;;;;;;;6125635;28;20317;-68
2022/04/05 00:33:11;;;;;;;10.40;4.70;;;;;;;;;;6149375;28;20230;-67
2022/04/05 00:36:33;;;;;;;10.90;4.00;;;;;;;;;;6150204;28;20265;-69
2022/04/05 00:39:54;;;;;;;11.87;4.10;;;;;;;;;;6149487;28;20318;-67
2022/04/05 00:43:16;;;;;;;12.47;3.67;;;;;;;;;;6143970;28;20231;-69
2022/04/05 00:46:37;;;;;;;6.50;2.47;;;;;;;;;;6144646;28;20822;-69
2022/04/05 00:49:58;;;;;;;10.87;3.90;;;;;;;;;;6145543;28;20262;-68
2022/04/05 00:53:20;;;;;;;10.87;3.13;;;;;;;;;;6147646;28;20234;-68
2022/04/05 00:56:41;;;;;;;13.30;3.77;;;;;;;;;;6145499;28;20235;-68
2022/04/05 01:00:07;;;;;;;11.83;3.57;;;;;;;;;;6142970;28;20230;-69
2022/04/05 01:03:29;;;;;;;8.03;3.47;;;;;;;;;;6134199;28;20250;-69
2022/04/05 01:06:50;;;;;;;10.93;3.57;;;;;;;;;;6146405;28;20235;-69
2022/04/05 01:10:11;;;;;;;10.07;2.50;;;;;;;;;;6151175;28;20504;-68
2022/04/05 01:13:32;;;;;;;8.60;2.63;;;;;;;;;;6149388;28;20243;-68
2022/04/05 01:16:54;;;;;;;13.37;2.67;;;;;;;;;;6143397;28;20734;-68
2022/04/05 01:20:15;;;;;;;8.63;3.83;;;;;;;;;;6148056;28;20255;-68
2022/04/05 01:23:36;;;;;;;6.03;2.40;;;;;;;;;;6147975;28;20242;-68
2022/04/05 01:26:59;;;;;;;8.67;2.60;;;;;;;;;;6143111;28;20239;-68
2022/04/05 01:30:20;;;;;;;10.63;2.47;;;;;;;;;;6145402;28;20227;-68
2022/04/05 01:33:41;;;;;;;11.43;3.33;;;;;;;;;;6147682;28;20234;-68
2022/04/05 01:37:03;;;;;;;7.00;3.03;;;;;;;;;;6149199;28;20273;-67
2022/04/05 01:40:24;;;;;;;10.57;3.80;;;;;;;;;;6154919;28;20505;-68
2022/04/05 01:43:46;;;;;;;7.63;2.43;;;;;;;;;;6156891;28;20223;-68
2022/04/05 01:47:09;;;;;;;7.97;2.83;;;;;;;;;;6152513;28;20226;-68
2022/04/05 01:50:31;;;;;;;11.67;2.30;;;;;;;;;;6155673;28;20226;-69
2022/04/05 01:53:52;;;;;;;7.30;2.63;;;;;;;;;;6159879;28;20586;-68
2022/04/05 01:57:15;;;;;;;8.90;2.80;;;;;;;;;;6155612;28;20237;-69
2022/04/05 02:00:37;;;;;;;13.13;2.93;;;;;;;;;;6150037;28;20317;-68
2022/04/05 02:03:59;;;;;;;8.90;2.77;;;;;;;;;;6154432;28;20250;-68
2022/04/05 02:07:20;;;;;;;12.70;3.00;;;;;;;;;;6149854;28;20238;-68
2022/04/05 02:10:41;;;;;;;5.73;2.13;;;;;;;;;;6148955;28;20231;-68
2022/04/05 02:14:02;;;;;;;10.10;3.03;;;;;;;;;;6144222;28;21192;-66
2022/04/05 02:17:25;;;;;;;6.97;2.23;;;;;;;;;;6136263;28;20550;-67
2022/04/05 02:20:49;;;;;;;3.67;2.27;;;;;;;;;;6137123;28;20254;-68
2022/04/05 02:24:14;;;;;;;7.50;2.17;;;;;;;;;;6144533;28;20306;-68
2022/04/05 02:27:35;;;;;;;9.23;2.23;;;;;;;;;;6139435;28;20230;-68
2022/04/05 02:30:57;;;;;;;6.23;2.23;;;;;;;;;;6143878;28;20332;-67
2022/04/05 02:34:25;;;;;;;9.83;2.63;;;;;;;;;;6152745;28;20230;-69
2022/04/05 02:37:52;;;;;;;3.87;1.77;;;;;;;;;;6137631;28;20235;-68
2022/04/05 02:41:17;;;;;;;8.43;2.73;;;;;;;;;;6134076;28;20692;-68
2022/04/05 02:44:38;;;;;;;6.00;2.27;;;;;;;;;;6150760;28;20230;-67
2022/04/05 02:48:00;;;;;;;7.00;2.33;;;;;;;;;;6134269;28;20250;-68
2022/04/05 02:51:23;;;;;;;8.17;1.90;;;;;;;;;;6133729;28;20242;-68
2022/04/05 02:54:46;;;;;;;4.60;1.67;;;;;;;;;;6151080;28;20230;-68
2022/04/05 02:58:08;;;;;;;4.23;1.90;;;;;;;;;;6137289;28;20231;-69
2022/04/05 03:01:31;;;;;;;4.03;1.63;;;;;;;;;;6128470;28;20515;-68
2022/04/05 03:04:56;;;;;;;5.93;2.57;;;;;;;;;;6126948;28;20234;-68
2022/04/05 03:08:20;;;;;;;7.63;2.50;;;;;;;;;;6138695;28;21882;-67
2022/04/05 03:11:42;;;;;;;9.27;2.07;;;;;;;;;;6133483;28;20226;-68
2022/04/05 03:15:06;;;;;;;5.53;2.33;;;;;;;;;;6129491;28;20235;-68
2022/04/05 03:18:28;;;;;;;5.37;2.07;;;;;;;;;;6131163;28;20233;-67
2022/04/05 03:21:49;;;;;;;7.27;2.20;;;;;;;;;;6141644;28;20251;-68
2022/04/05 03:25:11;;;;;;;6.23;2.20;;;;;;;;;;6134245;28;20227;-68
2022/04/05 03:28:33;;;;;;;7.60;2.53;;;;;;;;;;6134762;28;20238;-69
2022/04/05 03:31:55;;;;;;;9.23;2.17;;;;;;;;;;6127247;28;20234;-69
2022/04/05 03:35:18;;;;;;;12.73;2.57;;;;;;;;;;6133498;28;20230;-68
2022/04/05 03:38:40;;;;;;;12.10;3.40;;;;;;;;;;6138029;28;20222;-69
2022/04/05 03:42:06;;;;;;;7.40;2.40;;;;;;;;;;6131720;28;20759;-68
2022/04/05 03:45:27;;;;;;;9.80;3.57;;;;;;;;;;6142042;28;20230;-68
2022/04/05 03:48:48;;;;;;;8.10;2.57;;;;;;;;;;6148791;28;20317;-68
2022/04/05 03:52:12;;;;;;;6.50;2.60;;;;;;;;;;6148139;28;20529;-68
2022/04/05 03:55:32;;;;;;;11.00;3.43;;;;;;;;;;6137050;28;20234;-68
2022/04/05 03:58:57;;;;;;;5.07;2.27;;;;;;;;;;6141253;28;20832;-68
2022/04/05 04:02:18;;;;;;;8.47;2.27;;;;;;;;;;6142344;28;20238;-67
2022/04/05 04:05:39;;;;;;;6.80;1.70;;;;;;;;;;6131196;28;20847;-67
2022/04/05 04:09:03;;;;;;;8.10;3.10;;;;;;;;;;6135406;28;20666;-68
2022/04/05 04:12:24;;;;;;;7.87;1.90;;;;;;;;;;6141918;28;20226;-68
2022/04/05 04:15:47;;;;;;;8.17;3.03;;;;;;;;;;6132095;28;20230;-68
2022/04/05 04:19:09;;;;;;;6.90;2.37;;;;;;;;;;6134839;28;20227;-67
2022/04/05 04:22:31;;;;;;;8.97;2.80;;;;;;;;;;6132048;28;20246;-68
2022/04/05 04:25:52;;;;;;;7.60;2.13;;;;;;;;;;6130333;28;20326;-67
2022/04/05 04:29:14;;;;;;;8.97;2.43;;;;;;;;;;6131394;28;20238;-68
2022/04/05 04:32:37;;;;;;;10.00;2.67;;;;;;;;;;6131194;28;20243;-67
2022/04/05 04:35:58;;;;;;;7.60;2.47;;;;;;;;;;6143468;28;20234;-69
2022/04/05 04:39:19;;;;;;;6.83;2.70;;;;;;;;;;6122369;28;20234;-68
2022/04/05 04:42:40;;;;;;;5.23;2.43;;;;;;;;;;6148813;28;20239;-68
2022/04/05 04:46:01;;;;;;;6.00;2.17;;;;;;;;;;6148382;28;20223;-68
2022/04/05 04:49:23;;;;;;;10.63;3.90;;;;;;;;;;6150093;28;20263;-67
2022/04/05 04:52:44;;;;;;;8.20;3.03;;;;;;;;;;6149749;28;20783;-68
2022/04/05 04:56:05;;;;;;;6.07;2.20;;;;;;;;;;6144023;28;20230;-68
2022/04/05 04:59:26;;;;;;;7.00;2.07;;;;;;;;;;6150828;28;20834;-68
2022/04/05 05:02:48;;;;;;;13.13;3.80;;;;;;;;;;6137758;28;20235;-68
2022/04/05 05:06:10;;;;;;;5.93;2.37;;;;;;;;;;6136940;28;20227;-68
2022/04/05 05:09:31;;;;;;;10.13;3.53;;;;;;;;;;6137975;28;20231;-68
2022/04/05 05:12:52;;;;;;;5.60;1.63;;;;;;;;;;6137880;28;20231;-67
2022/04/05 05:16:13;;;;;;;10.67;3.47;;;;;;;;;;6139683;28;20230;-67
2022/04/05 05:19:34;;;;;;;8.60;1.83;;;;;;;;;;6141654;28;20239;-69
2022/04/05 05:22:56;;;;;;;5.67;2.00;;;;;;;;;;6155347;28;20223;-68
2022/04/05 05:26:17;;;;;;;5.00;3.20;;;;;;;;;;6158234;28;20313;-69
2022/04/05 05:29:37;;;;;;;5.07;1.77;;;;;;;;;;6159511;28;20238;-68
2022/04/05 05:32:58;;;;;;;7.67;2.27;;;;;;;;;;6159768;28;20321;-68
2022/04/05 05:36:19;;;;;;;4.97;2.00;;;;;;;;;;6157805;28;20235;-68
2022/04/05 05:39:41;;;;;;;6.40;2.47;;;;;;;;;;6159775;28;20235;-69
2022/04/05 05:43:04;;;;;;;6.20;2.80;;;;;;;;;;6165687;28;20230;-69
2022/04/05 05:46:25;;;;;;;11.60;2.43;;;;;;;;;;6158134;28;20234;-69
2022/04/05 05:49:46;;;;;;;5.57;1.90;;;;;;;;;;6158308;28;20242;-68
2022/04/05 05:53:07;;;;;;;9.33;2.53;;;;;;;;;;6154393;28;20802;-69
2022/04/05 05:56:30;;;;;;;6.00;2.47;;;;;;;;;;6147249;28;22041;-69
2022/04/05 05:59:50;;;;;;;5.73;2.53;;;;;;;;;;6142986;28;20228;-69
2022/04/05 06:03:11;;;;;;;7.50;2.73;;;;;;;;;;6147253;28;20629;-69
2022/04/05 06:06:32;;;;;;;10.63;2.43;;;;;;;;;;6148147;28;20230;-68
2022/04/05 06:09:53;;;;;;;7.17;2.67;;;;;;;;;;6147353;28;20290;-68
2022/04/05 06:13:16;;;;;;;8.53;2.60;;;;;;;;;;6148159;28;20243;-69
2022/04/05 06:16:37;;;;;;;8.97;2.07;;;;;;;;;;6145771;28;20243;-68
2022/04/05 06:19:58;;;;;;;10.17;2.87;;;;;;;;;;6149090;28;20235;-69
2022/04/05 06:23:18;;;;;;;10.53;3.30;;;;;;;;;;6160244;28;20265;-70
2022/04/05 06:26:39;;;;;;;5.73;2.20;;;;;;;;;;6148835;28;20629;-68
2022/04/05 06:30:02;;;;;;;15.10;4.47;;;;;;;;;;6147924;28;20239;-69
2022/04/05 06:33:23;;;;;;;5.50;2.90;;;;;;;;;;6148502;28;20255;-68
2022/04/05 06:36:44;;;;;;;9.47;2.83;;;;;;;;;;6150755;28;20306;-69
2022/04/05 06:40:06;;;;;;;8.97;3.17;;;;;;;;;;6150652;28;20227;-69
2022/04/05 06:43:28;;;;;;;7.07;2.37;;;;;;;;;;6148110;28;20258;-69
2022/04/05 06:46:50;;;;;;;7.80;2.13;;;;;;;;;;6152319;28;20223;-68
2022/04/05 06:50:12;;;;;;;8.47;3.23;;;;;;;;;;6149397;28;20227;-71
2022/04/05 06:53:33;;;;;;;8.57;2.83;;;;;;;;;;6135937;28;20656;-70
2022/04/05 06:56:53;;;;;;;3.60;2.00;;;;;;;;;;6163859;28;20234;-69
2022/04/05 07:00:17;;;;;;;6.33;1.93;;;;;;;;;;6165492;28;20660;-68
2022/04/05 07:03:39;;;;;;;11.33;3.33;;;;;;;;;;6163131;28;20588;-69
2022/04/05 07:07:00;;;;;;;9.10;2.70;;;;;;;;;;6165465;28;20623;-68
2022/04/05 07:10:21;;;;;;;8.80;2.20;;;;;;;;;;6136236;28;20259;-68
2022/04/05 07:13:41;;;;;;;5.83;1.63;;;;;;;;;;6167346;28;20238;-69
2022/04/05 07:17:03;;;;;;;6.43;2.57;;;;;;;;;;6167735;28;20226;-69
2022/04/05 07:20:25;;;;;;;7.10;2.57;;;;;;;;;;6167553;28;20238;-68
2022/04/05 07:23:46;;;;;;;5.47;2.50;;;;;;;;;;6160099;28;20935;-68
2022/04/05 07:27:07;;;;;;;5.07;2.60;;;;;;;;;;6165230;28;20230;-68
2022/04/05 07:30:28;;;;;;;4.37;2.50;;;;;;;;;;6161111;28;20234;-70
2022/04/05 07:33:49;;;;;;;7.57;2.13;;;;;;;;;;6149927;28;20239;-68
2022/04/05 07:37:11;;;;;;;5.97;2.17;;;;;;;;;;6149076;28;20793;-68
2022/04/05 07:44:08;;;;;;;5.73;2.33;;;;;;;;;;6148582;28;20246;-68
2022/04/05 07:47:28;;;;;;;5.83;2.40;;;;;;;;;;6146954;28;20239;-69
2022/04/05 07:50:50;;;;;;;8.03;2.63;;;;;;;;;;6151695;28;20222;-69
2022/04/05 07:54:12;;;;;;;7.63;2.63;;;;;;;;;;6147075;28;20530;-69
2022/04/05 07:57:34;;;;;;;5.13;2.17;;;;;;;;;;6142857;28;20232;-68
2022/04/05 08:00:55;;;;;;;9.57;2.43;;;;;;;;;;6146577;28;20625;-69
2022/04/05 08:04:16;;;;;;;7.50;2.80;;;;;;;;;;6144231;28;21073;-69
2022/04/05 08:07:37;;;;;;;3.30;1.97;;;;;;;;;;6148717;28;20254;-69
2022/04/05 08:10:59;;;;;;;6.70;2.20;;;;;;;;;;6141690;28;20223;-70
2022/04/05 08:14:20;;;;;;;6.80;2.20;;;;;;;;;;6148254;28;20230;-70
2022/04/05 08:17:42;;;;;;;2.70;1.90;;;;;;;;;;6155645;28;20226;-68
2022/04/05 08:21:03;;;;;;;8.27;2.40;;;;;;;;;;6158676;28;20225;-68
2022/04/05 08:24:24;;;;;;;5.23;2.00;;;;;;;;;;6153651;28;20227;-69
2022/04/05 08:27:48;;;;;;;3.90;1.80;;;;;;;;;;6149625;28;20494;-68
2022/04/05 08:31:09;;;;;;;4.90;2.67;;;;;;;;;;6155121;28;20234;-68
2022/04/05 08:34:31;;;;;;;10.60;3.50;;;;;;;;;;6152151;28;20234;-69
2022/04/05 08:37:53;;;;;;;7.00;2.07;;;;;;;;;;6164389;28;20226;-68
2022/04/05 08:41:18;;;;;;;5.47;2.03;;;;;;;;;;6158312;28;20226;-68
2022/04/05 08:44:42;;;;;;;6.07;2.13;;;;;;;;;;6158401;28;20359;-68
2022/04/05 08:48:09;;;;;;;4.93;2.07;;;;;;;;;;6154082;28;20600;-68
2022/04/05 08:51:30;;;;;;;4.77;1.83;;;;;;;;;;6146611;28;20238;-69
2022/04/05 08:54:51;;;;;;;6.50;2.27;;;;;;;;;;6153782;28;20548;-70
2022/04/05 08:58:13;;;;;;;6.90;1.90;;;;;;;;;;6153053;28;20222;-69
2022/04/05 09:01:35;;;;;;;2.40;1.27;;;;;;;;;;6153652;28;20235;-68
2022/04/05 09:04:56;;;;;;;3.37;1.87;;;;;;;;;;6148314;28;20226;-69
2022/04/05 09:08:22;;;;;;;3.13;1.80;;;;;;;;;;6163922;28;20242;-69
2022/04/05 09:11:44;;;;;;;5.10;2.73;;;;;;;;;;6153381;28;20331;-68
2022/04/05 09:15:09;;;;;;;4.10;1.67;;;;;;;;;;6158317;28;20266;-68
2022/04/05 09:18:35;;;;;;;6.00;2.07;;;;;;;;;;6154800;28;20242;-69
2022/04/05 09:21:58;;;;;;;5.87;2.70;;;;;;;;;;6154969;28;20219;-70
2022/04/05 09:25:19;;;;;;;6.43;3.00;;;;;;;;;;6154003;28;20235;-69
2022/04/05 09:28:41;;;;;;;3.73;1.50;;;;;;;;;;6151397;28;20227;-68
2022/04/05 09:32:02;;;;;;;4.43;2.07;;;;;;;;;;6152882;28;20581;-68
2022/04/05 09:35:29;;;;;;;3.73;2.73;;;;;;;;;;6149337;28;20616;-68
2022/04/05 09:38:50;;;;;;;6.20;2.43;;;;;;;;;;6138727;28;20356;-68
2022/04/05 09:42:11;;;;;;;4.10;1.97;;;;;;;;;;6149675;28;20600;-69
2022/04/05 09:45:42;;;;;;;7.90;2.87;;;;;;;;;;6153044;28;20227;-68
2022/04/05 09:49:09;;;;;;;4.33;2.70;;;;;;;;;;6152297;28;20317;-69
2022/04/05 09:52:32;;;;;;;4.83;2.20;;;;;;;;;;6172146;28;20282;-68
2022/04/05 09:56:04;;;;;;;4.23;1.67;;;;;;;;;;6169515;28;20815;-70
2022/04/05 09:59:26;;;;;;;5.87;2.13;;;;;;;;;;6165427;28;20231;-68
2022/04/05 10:03:00;;;;;;;2.77;1.43;;;;;;;;;;6166917;28;20234;-69
2022/04/05 10:06:21;;;;;;;6.33;2.53;;;;;;;;;;6142808;28;20601;-68
2022/04/05 10:09:44;;;;;;;4.10;1.87;;;;;;;;;;6165854;28;20227;-69
2022/04/05 10:13:05;;;;;;;5.50;1.60;;;;;;;;;;6169536;28;20258;-69
2022/04/05 10:16:27;;;;;;;4.00;2.20;;;;;;;;;;6148976;28;20235;-69
2022/04/05 10:19:50;;;;;;;6.70;2.43;;;;;;;;;;6165846;28;20317;-69
2022/04/05 10:23:11;;;;;;;4.87;1.90;;;;;;;;;;6159789;28;20915;-69
2022/04/05 10:26:35;;;;;;;4.47;1.30;;;;;;;;;;6167767;28;20238;-69
2022/04/05 10:30:01;;;;;;;5.33;2.00;;;;;;;;;;6171311;28;20226;-69
2022/04/05 10:33:26;;;;;;;6.37;1.90;;;;;;;;;;6158760;28;20226;-69
2022/04/05 10:37:08;;;;;;;2.97;1.13;;;;;;;;;;6154198;28;20239;-68
2022/04/05 10:40:29;;;;;;;5.53;2.00;;;;;;;;;;6159304;28;20239;-70
2022/04/05 10:44:21;;;;;;;6.17;1.83;;;;;;;;;;6164768;28;20234;-69
2022/04/05 10:48:10;;;;;;;4.63;1.50;;;;;;;;;;6165405;28;20265;-69
2022/04/05 10:51:31;;;;;;;4.20;1.90;;;;;;;;;;6166028;28;20321;-69
2022/04/05 10:54:54;;;;;;;4.23;2.23;;;;;;;;;;6161294;28;20854;-69
2022/04/05 10:58:14;;;;;;;2.83;1.77;;;;;;;;;;6156776;28;20226;-69
2022/04/05 11:01:43;;;;;;;4.70;2.17;;;;;;;;;;6166210;28;20242;-69
2022/04/05 11:05:43;;;;;;;3.63;1.47;;;;;;;;;;6161412;28;20261;-69
2022/04/05 11:09:05;;;;;;;4.80;1.80;;;;;;;;;;6160866;28;20223;-69
2022/04/05 11:12:28;;;;;;;5.70;1.70;;;;;;;;;;6160468;28;20667;-69
2022/04/05 11:15:52;;;;;;;4.77;1.40;;;;;;;;;;6157203;28;20614;-68
2022/04/05 11:19:15;;;;;;;5.93;1.47;;;;;;;;;;6168573;28;20235;-68
2022/04/05 11:22:38;;;;;;;4.60;1.83;;;;;;;;;;6162918;28;20327;-68
2022/04/05 11:26:22;;;;;;;2.60;1.57;;;;;;;;;;6157895;28;20615;-69
2022/04/05 11:29:43;;;;;;;2.57;1.37;;;;;;;;;;6166286;28;20223;-69
2022/04/05 11:33:37;;;;;;;3.83;1.83;;;;;;;;;;6166247;28;20381;-69
2022/04/05 11:37:00;;;;;;;3.80;1.60;;;;;;;;;;6149403;28;20535;-70
2022/04/05 11:40:21;;;;;;;4.17;1.90;;;;;;;;;;6159709;28;20242;-69
2022/04/05 11:43:43;;;;;;;4.40;1.50;;;;;;;;;;6157080;28;20239;-69
2022/04/05 11:47:06;;;;;;;5.00;1.97;;;;;;;;;;6160841;28;20230;-70
2022/04/05 11:50:27;;;;;;;2.80;1.60;;;;;;;;;;6160141;28;20369;-69
2022/04/05 11:53:49;;;;;;;5.73;2.30;;;;;;;;;;6158150;28;20234;-69
2022/04/05 11:57:10;;;;;;;3.40;1.60;;;;;;;;;;6160179;28;20280;-68
2022/04/05 12:00:33;;;;;;;3.27;1.40;;;;;;;;;;6161122;28;20238;-69
2022/04/05 12:03:55;;;;;;;3.57;2.07;;;;;;;;;;6157486;28;20581;-68
2022/04/05 12:07:16;;;;;;;3.20;1.47;;;;;;;;;;6159715;28;20242;-68
2022/04/05 12:10:39;;;;;;;3.40;1.97;;;;;;;;;;6159011;28;20246;-69
2022/04/05 12:14:04;;;;;;;4.80;1.73;;;;;;;;;;6157407;28;20227;-68
2022/04/05 12:17:25;;;;;;;4.23;1.53;;;;;;;;;;6152503;28;20235;-68
2022/04/05 12:20:56;;;;;;;4.17;2.00;;;;;;;;;;6157480;28;20242;-69
2022/04/05 12:24:18;;;;;;;3.50;1.20;;;;;;;;;;6163089;28;20515;-69
2022/04/05 12:27:40;;;;;;;4.43;1.20;;;;;;;;;;6157721;28;20226;-68
2022/04/05 12:31:08;;;;;;;2.43;1.43;;;;;;;;;;6153398;28;20226;-68
2022/04/05 12:34:29;;;;;;;4.57;1.27;;;;;;;;;;6158928;28;20234;-69
2022/04/05 12:37:50;;;;;;;2.27;1.27;;;;;;;;;;6146326;28;20637;-68
2022/04/05 12:41:13;;;;;;;7.37;2.53;;;;;;;;;;6144250;28;20849;-68
2022/04/05 12:44:37;;;;;;;2.63;1.20;;;;;;;;;;6156034;28;20230;-67
2022/04/05 12:47:58;;;;;;;3.57;1.47;;;;;;;;;;6153845;28;20231;-68
2022/04/05 12:51:31;;;;;;;2.87;1.40;;;;;;;;;;6160843;28;20262;-68
2022/04/05 12:54:53;;;;;;;1.10;1.00;;;;;;;;;;6157142;28;20226;-68
2022/04/05 12:58:14;;;;;;;1.53;1.00;;;;;;;;;;6157812;28;20231;-68
2022/04/05 13:01:36;;;;;;;4.20;2.23;;;;;;;;;;6153887;28;20242;-67
2022/04/05 13:08:46;;;;;;;2.17;1.67;;;;;;;;;;6165782;28;20222;-69
2022/04/05 13:12:08;;;;;;;2.67;1.43;;;;;;;;;;6157429;28;20775;-69
2022/04/05 13:15:29;;;;;;;2.60;1.27;;;;;;;;;;6155117;28;20230;-69
2022/04/05 13:18:51;;;;;;;6.43;1.43;;;;;;;;;;6162233;28;20725;-69
2022/04/05 13:22:13;;;;;;;1.57;0.93;;;;;;;;;;6153474;28;20583;-68
2022/04/05 13:25:35;;;;;;;1.80;1.00;;;;;;;;;;6158073;28;20237;-68
2022/04/05 13:29:04;;;;;;;1.43;1.33;;;;;;;;;;6164226;28;20549;-69
2022/04/05 13:32:25;;;;;;;0.80;0.80;;;;;;;;;;6143151;28;20223;-68
2022/04/05 13:35:47;;;;;;;1.23;0.83;;;;;;;;;;6162583;28;20254;-69
2022/04/05 13:39:09;;;;;;;1.63;1.00;;;;;;;;;;6157362;28;20282;-68
2022/04/05 13:42:31;;;;;;;1.90;0.90;;;;;;;;;;6155353;28;20846;-68
2022/04/05 13:45:52;;;;;;;2.33;1.10;;;;;;;;;;6168152;28;20242;-69
2022/04/05 13:49:14;;;;;;;2.33;0.90;;;;;;;;;;6156601;28;20238;-67
2022/04/05 13:52:37;;;;;;;3.53;1.10;;;;;;;;;;6159949;28;20223;-69
2022/04/05 13:55:58;;;;;;;3.03;1.00;;;;;;;;;;6147822;28;20238;-68
2022/04/05 13:59:19;;;;;;;4.10;0.90;;;;;;;;;;6164171;28;20728;-69
2022/04/05 14:02:39;;;;;;;2.27;1.23;;;;;;;;;;6157070;28;20273;-69
2022/04/05 14:06:00;;;;;;;2.67;1.47;;;;;;;;;;6158919;28;20575;-69
2022/04/05 14:09:22;;;;;;;2.33;1.10;;;;;;;;;;6159166;28;20255;-69
2022/04/05 14:12:43;;;;;;;3.43;1.07;;;;;;;;;;6153590;28;20247;-69
2022/04/05 14:16:05;;;;;;;1.10;0.80;;;;;;;;;;6155321;28;20255;-70
2022/04/05 14:19:26;;;;;;;0.83;0.83;;;;;;;;;;6164161;28;20230;-68
2022/04/05 14:22:47;;;;;;;2.10;1.70;;;;;;;;;;6158372;28;20235;-68
2022/04/05 14:26:10;;;;;;;2.20;1.10;;;;;;;;;;6154946;28;20668;-71
2022/04/05 14:29:31;;;;;;;1.50;0.90;;;;;;;;;;6157479;28;20223;-68
2022/04/05 14:32:52;;;;;;;0.97;0.70;;;;;;;;;;6152103;28;20822;-69
2022/04/05 14:36:12;;;;;;;1.80;1.10;;;;;;;;;;6158451;28;20554;-70
2022/04/05 14:39:33;;;;;;;1.80;0.93;;;;;;;;;;6160616;28;20235;-69
2022/04/05 14:42:56;;;;;;;1.73;1.10;;;;;;;;;;6156407;28;20230;-67
2022/04/05 14:46:17;;;;;;;1.90;1.10;;;;;;;;;;6157120;28;20230;-69
2022/04/05 14:49:38;;;;;;;2.97;1.47;;;;;;;;;;6137098;28;20636;-69
2022/04/05 14:52:59;;;;;;;1.47;1.10;;;;;;;;;;6146843;28;20235;-69
2022/04/05 14:56:20;;;;;;;1.47;1.17;;;;;;;;;;6147198;28;20243;-68
2022/04/05 14:59:42;;;;;;;1.50;1.40;;;;;;;;;;6146366;28;20232;-68
2022/04/05 15:03:03;;;;;;;1.87;1.67;;;;;;;;;;6143744;28;20234;-69
2022/04/05 15:06:25;;;;;;;1.40;1.13;;;;;;;;;;6145083;28;20516;-68
2022/04/05 15:09:45;;;;;;;2.30;1.03;;;;;;;;;;6149497;28;20230;-68
2022/04/05 15:13:07;;;;;;;1.77;1.40;;;;;;;;;;6145367;28;20234;-69
2022/04/05 15:16:29;;;;;;;1.83;1.40;;;;;;;;;;6142916;28;20226;-70
2022/04/05 15:19:51;;;;;;;1.90;1.17;;;;;;;;;;6142503;28;20234;-69
2022/04/05 15:23:12;;;;;;;1.53;1.40;;;;;;;;;;6144100;28;20270;-69
2022/04/05 15:26:33;;;;;;;1.20;1.10;;;;;;;;;;6146306;28;20239;-70
2022/04/05 15:29:55;;;;;;;1.70;1.50;;;;;;;;;;6143083;28;20223;-69
2022/04/05 15:33:17;;;;;;;2.30;1.13;;;;;;;;;;6153117;28;20289;-70
2022/04/05 15:36:38;;;;;;;0.93;0.93;;;;;;;;;;6144387;28;20239;-69
2022/04/05 15:39:58;;;;;;;1.20;1.03;;;;;;;;;;6143762;28;20684;-72
2022/04/05 15:43:20;;;;;;;1.33;1.23;;;;;;;;;;6148305;28;20238;-70
2022/04/05 15:46:42;;;;;;;1.17;0.80;;;;;;;;;;6139400;28;20622;-70
2022/04/05 15:50:05;;;;;;;1.10;1.00;;;;;;;;;;6148313;28;20234;-69
2022/04/05 15:53:26;;;;;;;2.50;1.60;;;;;;;;;;6144050;28;20254;-69
2022/04/05 15:56:47;;;;;;;1.43;0.90;;;;;;;;;;6142109;28;20223;-70
2022/04/05 16:00:11;;;;;;;1.80;0.87;;;;;;;;;;6155362;28;20604;-70
2022/04/05 16:03:35;;;;;;;1.23;1.13;;;;;;;;;;6145075;28;20246;-70
2022/04/05 16:06:59;;;;;;;0.80;0.73;;;;;;;;;;6142197;28;20239;-70
2022/04/05 16:10:20;;;;;;;2.47;1.27;;;;;;;;;;6146153;28;20227;-70
2022/04/05 16:13:41;;;;;;;1.37;1.10;;;;;;;;;;6142023;28;20222;-69
2022/04/05 16:17:02;;;;;;;1.70;1.17;;;;;;;;;;6142311;28;20649;-69
2022/04/05 16:20:23;;;;;;;1.83;1.60;;;;;;;;;;6140019;28;20242;-69
2022/04/05 16:23:46;;;;;;;1.80;1.07;;;;;;;;;;6134349;28;20238;-69
2022/04/05 16:27:06;;;;;;;2.73;1.30;;;;;;;;;;6133436;28;20227;-69
2022/04/05 16:30:27;;;;;;;0.80;0.80;;;;;;;;;;6137129;28;20242;-69
2022/04/05 16:33:51;;;;;;;1.20;1.10;;;;;;;;;;6141783;28;20329;-70
2022/04/05 16:37:13;;;;;;;1.30;1.20;;;;;;;;;;6135578;28;20238;-70
2022/04/05 16:40:35;;;;;;;0.80;0.80;;;;;;;;;;6142220;28;20313;-69
2022/04/05 16:43:56;;;;;;;2.50;1.90;;;;;;;;;;6146715;28;20227;-70
2022/04/05 16:47:17;;;;;;;1.57;1.37;;;;;;;;;;6148211;28;20238;-68
2022/04/05 16:50:38;;;;;;;1.20;1.10;;;;;;;;;;6151000;28;20230;-69
2022/04/05 16:54:00;;;;;;;1.63;1.17;;;;;;;;;;6149208;28;20222;-72
2022/04/05 16:57:22;;;;;;;1.17;1.00;;;;;;;;;;6144907;28;20627;-69
2022/04/05 17:00:43;;;;;;;2.23;2.03;;;;;;;;;;6158882;28;20560;-70
2022/04/05 17:04:04;;;;;;;1.60;1.10;;;;;;;;;;6157733;28;20223;-70
2022/04/05 17:07:25;;;;;;;4.20;2.77;;;;;;;;;;6155166;28;20219;-69
2022/04/05 17:10:46;;;;;;;2.13;2.00;;;;;;;;;;6147030;28;20620;-69
2022/04/05 17:14:08;;;;;;;2.10;1.87;;;;;;;;;;6144417;28;20226;-69
2022/04/05 17:17:29;;;;;;;1.93;1.83;;;;;;;;;;6137252;28;20234;-70
2022/04/05 17:20:50;;;;;;;3.23;1.90;;;;;;;;;;6152061;28;20234;-70
2022/04/05 17:24:11;;;;;;;1.27;1.23;;;;;;;;;;6145128;28;20233;-69
2022/04/05 17:27:32;;;;;;;4.40;2.17;;;;;;;;;;6147987;28;20514;-70
2022/04/05 17:30:54;;;;;;;2.37;1.67;;;;;;;;;;6141525;28;20321;-70
2022/04/05 17:34:15;;;;;;;1.77;1.60;;;;;;;;;;6146160;28;20231;-69
2022/04/05 17:37:36;;;;;;;4.13;3.10;;;;;;;;;;6144051;28;20229;-69
2022/04/05 17:40:57;;;;;;;2.30;2.13;;;;;;;;;;6146008;28;20234;-70
2022/04/05 17:44:20;;;;;;;2.97;1.87;;;;;;;;;;6152796;28;20337;-69
2022/04/05 17:47:45;;;;;;;2.17;2.07;;;;;;;;;;6148388;28;20230;-70
2022/04/05 17:51:06;;;;;;;2.17;1.97;;;;;;;;;;6157724;28;20737;-69
2022/04/05 17:54:27;;;;;;;3.00;2.77;;;;;;;;;;6147643;28;20255;-70
2022/04/05 17:57:48;;;;;;;2.43;2.27;;;;;;;;;;6148838;28;20235;-70
2022/04/05 18:01:10;;;;;;;3.07;2.77;;;;;;;;;;6146517;28;20305;-70
2022/04/05 18:04:32;;;;;;;2.63;2.40;;;;;;;;;;6152602;28;20331;-70
2022/04/05 18:07:53;;;;;;;2.00;1.90;;;;;;;;;;6149099;28;20519;-70
2022/04/05 18:11:14;;;;;;;3.07;2.70;;;;;;;;;;6146843;28;20235;-70
2022/04/05 18:14:35;;;;;;;4.53;3.17;;;;;;;;;;6146454;28;20242;-70
2022/04/05 18:17:56;;;;;;;2.23;2.03;;;;;;;;;;6141813;28;20288;-69
2022/04/05 18:21:19;;;;;;;3.00;2.13;;;;;;;;;;6144463;28;20227;-70
2022/04/05 18:24:40;;;;;;;2.77;2.57;;;;;;;;;;6146908;28;20230;-69
2022/04/05 18:28:01;;;;;;;3.23;2.83;;;;;;;;;;6144364;28;20506;-71
2022/04/05 18:31:22;;;;;;;3.00;2.80;;;;;;;;;;6142115;28;20238;-69
2022/04/05 18:34:44;;;;;;;2.53;2.33;;;;;;;;;;6147826;28;20238;-69
2022/04/05 18:38:06;;;;;;;4.30;3.90;;;;;;;;;;6146054;28;20226;-70
2022/04/05 18:41:27;;;;;;;2.03;1.77;;;;;;;;;;6144950;28;20235;-69
2022/04/05 18:44:48;;;;;;;2.13;1.97;;;;;;;;;;6143313;28;20235;-70
2022/04/05 18:48:09;;;;;;;3.07;1.83;;;;;;;;;;6147156;28;20250;-71
2022/04/05 18:51:33;;;;;;;1.67;1.57;;;;;;;;;;6144566;28;20231;-70
2022/04/05 18:54:55;;;;;;;4.60;2.07;;;;;;;;;;6151325;28;20222;-70
2022/04/05 18:58:16;;;;;;;2.73;2.07;;;;;;;;;;6146763;28;20234;-71
2022/04/05 19:01:37;;;;;;;4.00;2.33;;;;;;;;;;6142079;28;20226;-69
2022/04/05 19:04:59;;;;;;;2.17;1.87;;;;;;;;;;6146203;28;20234;-70
2022/04/05 19:08:19;;;;;;;3.00;2.70;;;;;;;;;;6144045;28;20254;-71
2022/04/05 19:11:41;;;;;;;4.07;2.90;;;;;;;;;;6145203;28;20228;-70
2022/04/05 19:15:02;;;;;;;4.00;3.37;;;;;;;;;;6139876;28;20613;-70
2022/04/05 19:18:23;;;;;;;3.37;3.17;;;;;;;;;;6140808;28;20581;-69
2022/04/05 19:21:44;;;;;;;3.33;3.10;;;;;;;;;;6134974;28;20272;-69
2022/04/05 19:25:05;;;;;;;3.47;3.17;;;;;;;;;;6150249;28;20262;-69
2022/04/05 19:28:28;;;;;;;4.47;4.07;;;;;;;;;;6148382;28;20230;-72
2022/04/05 19:31:49;;;;;;;4.63;4.23;;;;;;;;;;6152077;28;20223;-70
2022/04/05 19:35:10;;;;;;;4.90;4.53;;;;;;;;;;6151213;28;20235;-69
2022/04/05 19:38:31;;;;;;;4.60;4.20;;;;;;;;;;6157671;28;20503;-69
2022/04/05 19:41:52;;;;;;;5.57;5.00;;;;;;;;;;6159453;28;20230;-70
2022/04/05 19:45:15;;;;;;;3.87;3.57;;;;;;;;;;6153533;28;20227;-69
2022/04/05 19:48:36;;;;;;;6.37;5.87;;;;;;;;;;6157445;28;20246;-69
2022/04/05 19:51:57;;;;;;;4.57;4.27;;;;;;;;;;6154170;28;20230;-69
2022/04/05 19:55:18;;;;;;;4.70;4.30;;;;;;;;;;6147884;28;20230;-69
2022/04/05 19:58:39;;;;;;;7.37;6.73;;;;;;;;;;6158443;28;20245;-68
2022/04/05 20:02:01;;;;;;;5.87;5.47;;;;;;;;;;6150427;28;20234;-69
2022/04/05 20:05:22;;;;;;;5.40;5.00;;;;;;;;;;6147615;28;20230;-69
2022/04/05 20:08:43;;;;;;;6.17;5.77;;;;;;;;;;6157794;28;20329;-69
2022/04/05 20:12:04;;;;;;;5.40;4.93;;;;;;;;;;6147817;28;20661;-69
2022/04/05 20:15:25;;;;;;;4.77;4.37;;;;;;;;;;6154964;28;20230;-69
2022/04/05 20:18:51;;;;;;;4.90;4.60;;;;;;;;;;6157196;28;20309;-69